עמוד ראשי
METAR-TAF:

METAR-TAF

שדות תעופה :

Yacuíba, בוליביה

קו רוחב: 21-57S, קו אורך: 063-39W, גובה: 645מטר

תצפית מזג אוויר נוכחית

הדו"ח נערך לפני 8 שעות ו 36דקות, בשעה 20:00 UTC
רוח 4קשר מכיוון דרום
טמפרטורת 31 צלסיוס
לחות 40%
לחץ 1010 hPa
ראות 10 קילומטר או יותר

METAR: SLYA 242000Z 18004KT 9999 NSC 31/16 Q1010

זמן: 00:36 (04:36 UTC)

תחזית

הדו"ח נערך לפני 12 שעות ו 36דקות, בשעה 16:00 UTC
תחזית בתוקף מ 24 ב 18 UTC עד 25 ב 18 UTC
רוח 5קשר מכיוון דרום/דרום-מערב
ראות 10 קילומטר או יותר
יעשה מ
24 ב 19 UTC עד 24 ב 21 UTC
רוח 10קשר מכיוון דרום-מערב
יעשה מ
25 ב 01 UTC עד 25 ב 03 UTC
רוח קשר מכיוון צפון
עננים בינוניים בגובה 1200רגל

TAF: SLYA 241600Z 2418/2518 21005KT 9999 NSC TX31/2419Z TN11/2511Z BECMG 2419/2421 22010KT BECMG 2501/2503 00000KT BKN012

תצפיות ותחזיות מזג אוויר לגבי יותר מ- 4,000 שדות תעופה ברחבי העולם. דוחות METAR ו- TAF.

התחנות הזמינות מסומנות בנקודות צהובות ואדומות על גבי המפה.

העבר את העכבר לנקודה הצבעונית על מנת לראות את שם התחנה.

לאחר מכן, לחץ כדי לראות את תוכן ואת תחזיות מזג האוויר.

כדי לשנות את המפה: לחץ על הכפתורים הירוקים עם הפלוס השחור כדי להתקרב; על הכפתור הירוק עם המקף כדי להתרחק; או בחיצים הירוקים למפות סמוכות.


METAR-TAF: